createdAt,value
2024-03-10T00:00:27.093Z,97823.78
2024-03-10T00:03:15.314Z,97822.88
2024-03-10T00:05:43.340Z,97827.23
2024-03-10T00:08:11.302Z,97828.13
2024-03-10T00:10:42.615Z,97824.98
2024-03-10T00:13:11.149Z,97829.30
2024-03-10T00:15:39.123Z,97826.77
2024-03-10T00:18:09.661Z,97822.11
2024-03-10T00:20:37.792Z,97815.48
2024-03-10T00:23:07.253Z,97816.20
2024-03-10T00:25:36.362Z,97819.73
2024-03-10T00:28:04.988Z,97818.25
2024-03-10T00:30:34.783Z,97812.67
2024-03-10T00:33:02.818Z,97807.54
2024-03-10T00:35:30.984Z,97812.73
2024-03-10T00:37:59.100Z,97814.15
2024-03-10T00:40:27.770Z,97811.79
2024-03-10T00:42:55.647Z,97807.23
2024-03-10T00:45:26.384Z,97803.04
2024-03-10T00:47:56.190Z,97803.92
2024-03-10T00:50:24.226Z,97797.20
2024-03-10T00:52:52.569Z,97797.48
2024-03-10T00:55:20.589Z,97795.02
2024-03-10T00:57:48.810Z,97789.48
2024-03-10T01:00:17.038Z,97790.34
2024-03-10T01:02:49.040Z,97785.31
2024-03-10T01:05:17.426Z,97783.39
2024-03-10T01:07:45.417Z,97777.31
2024-03-10T01:10:13.432Z,97781.63
2024-03-10T01:12:41.520Z,97780.09
2024-03-10T01:15:09.780Z,97781.96
2024-03-10T01:17:38.921Z,97780.92
2024-03-10T01:20:08.078Z,97785.23
2024-03-10T01:22:36.233Z,97777.61
2024-03-10T01:25:05.915Z,97783.07
2024-03-10T01:27:34.043Z,97774.73
2024-03-10T01:30:02.287Z,97771.82
2024-03-10T01:32:31.166Z,97770.96
2024-03-10T01:34:59.220Z,97764.63
2024-03-10T01:37:27.295Z,97762.85
2024-03-10T01:39:55.276Z,97762.81
2024-03-10T01:42:23.180Z,97755.34
2024-03-10T01:44:51.274Z,97751.90
2024-03-10T01:47:19.277Z,97751.34
2024-03-10T01:49:47.666Z,97745.80
2024-03-10T01:52:15.758Z,97745.95
2024-03-10T01:54:44.526Z,97744.02
2024-03-10T01:57:12.643Z,97736.59
2024-03-10T01:59:40.757Z,97743.09
2024-03-10T02:02:08.946Z,97742.35
2024-03-10T02:04:39.188Z,97739.89
2024-03-10T02:07:07.582Z,97741.66
2024-03-10T02:09:37.210Z,97730.91
2024-03-10T02:12:07.106Z,97724.41
2024-03-10T02:14:35.308Z,97722.18
2024-03-10T02:17:03.504Z,97720.33
2024-03-10T02:19:31.598Z,97715.61
2024-03-10T02:21:59.629Z,97714.45
2024-03-10T02:24:38.153Z,97712.18
2024-03-10T02:27:07.092Z,97716.52
2024-03-10T02:29:51.199Z,97713.60
2024-03-10T02:32:38.138Z,97706.74
2024-03-10T02:35:26.154Z,97709.86
2024-03-10T02:38:12.886Z,97702.95
2024-03-10T02:40:59.667Z,97705.23
2024-03-10T02:43:46.095Z,97701.27
2024-03-10T02:46:32.834Z,97699.77
2024-03-10T02:49:00.844Z,97697.80
2024-03-10T02:51:28.767Z,97696.48
2024-03-10T02:53:56.758Z,97694.41
2024-03-10T02:56:25.053Z,97697.32
2024-03-10T02:58:53.034Z,97694.80
2024-03-10T03:01:22.775Z,97691.40
2024-03-10T03:03:53.197Z,97690.14
2024-03-10T03:06:23.886Z,97684.42
2024-03-10T03:08:51.942Z,97680.89
2024-03-10T03:11:19.980Z,97678.16
2024-03-10T03:13:49.076Z,97677.14
2024-03-10T03:16:17.049Z,97676.95
2024-03-10T03:18:46.482Z,97675.09
2024-03-10T03:21:14.890Z,97678.60
2024-03-10T03:23:42.892Z,97677.66
2024-03-10T03:26:10.773Z,97674.37
2024-03-10T03:28:38.887Z,97672.80
2024-03-10T03:31:07.012Z,97674.38
2024-03-10T03:33:34.931Z,97674.26
2024-03-10T03:36:03.613Z,97670.14
2024-03-10T03:38:31.862Z,97670.94
2024-03-10T03:40:59.884Z,97668.58
2024-03-10T03:43:27.805Z,97672.40
2024-03-10T03:45:55.731Z,97673.19
2024-03-10T03:48:23.703Z,97671.99
2024-03-10T03:50:51.929Z,97669.74
2024-03-10T03:53:20.011Z,97668.50
2024-03-10T03:55:48.204Z,97668.00
2024-03-10T03:58:16.292Z,97662.35
2024-03-10T04:00:44.427Z,97661.56
2024-03-10T04:03:12.385Z,97664.43
2024-03-10T04:05:42.220Z,97662.55
2024-03-10T04:08:12.935Z,97666.75
2024-03-10T04:10:41.145Z,97666.14
2024-03-10T04:13:09.156Z,97662.56
2024-03-10T04:15:37.157Z,97662.04
2024-03-10T04:18:06.337Z,97663.00
2024-03-10T04:20:36.385Z,97661.34
2024-03-10T04:23:06.820Z,97653.05
2024-03-10T04:25:35.668Z,97650.95
2024-03-10T04:28:03.986Z,97649.73
2024-03-10T04:30:32.595Z,97651.84
2024-03-10T04:33:00.659Z,97651.30
2024-03-10T04:35:29.749Z,97649.11
2024-03-10T04:37:57.960Z,97653.36
2024-03-10T04:40:25.822Z,97652.27
2024-03-10T04:42:53.694Z,97653.93
2024-03-10T04:45:22.216Z,97658.13
2024-03-10T04:47:50.136Z,97659.17
2024-03-10T04:50:20.145Z,97659.49
2024-03-10T04:52:48.210Z,97663.17
2024-03-10T04:55:16.705Z,97665.77
2024-03-10T04:57:44.606Z,97665.52
2024-03-10T05:00:17.290Z,97662.70
2024-03-10T05:02:46.406Z,97667.64
2024-03-10T05:05:17.275Z,97665.50
2024-03-10T05:07:52.426Z,97658.88
2024-03-10T05:10:20.918Z,97663.88
2024-03-10T05:12:49.057Z,97662.77
2024-03-10T05:15:17.035Z,97659.38
2024-03-10T05:17:45.034Z,97657.27
2024-03-10T05:20:16.334Z,97654.20
2024-03-10T05:22:45.087Z,97661.66
2024-03-10T05:25:13.143Z,97665.46
2024-03-10T05:27:42.940Z,97666.64
2024-03-10T05:30:11.466Z,97669.29
2024-03-10T05:32:39.548Z,97666.83
2024-03-10T05:35:07.951Z,97668.30
2024-03-10T05:37:37.464Z,97664.61
2024-03-10T05:40:08.767Z,97665.49
2024-03-10T05:42:36.641Z,97668.48
2024-03-10T05:45:05.709Z,97665.07
2024-03-10T05:47:34.361Z,97655.16
2024-03-10T05:50:03.622Z,97650.68
2024-03-10T05:52:31.671Z,97643.49
2024-03-10T05:54:59.738Z,97646.91
2024-03-10T05:57:31.197Z,97647.95
2024-03-10T05:59:59.607Z,97647.80
2024-03-10T06:02:27.742Z,97646.37
2024-03-10T06:04:56.254Z,97652.90
2024-03-10T06:07:24.167Z,97655.30
2024-03-10T06:09:52.159Z,97656.05
2024-03-10T06:12:20.123Z,97653.05
2024-03-10T06:14:48.025Z,97651.81
2024-03-10T06:17:15.973Z,97643.19
2024-03-10T06:20:02.673Z,97638.91
2024-03-10T06:22:49.783Z,97637.13
2024-03-10T06:25:24.345Z,97633.19
2024-03-10T06:27:53.220Z,97634.26
2024-03-10T06:30:21.454Z,97635.20
2024-03-10T06:32:51.552Z,97639.49
2024-03-10T06:35:20.655Z,97644.05
2024-03-10T06:37:49.821Z,97645.98
2024-03-10T06:40:18.044Z,97646.80
2024-03-10T06:42:48.939Z,97643.57
2024-03-10T06:45:16.850Z,97639.45
2024-03-10T06:47:45.006Z,97637.91
2024-03-10T06:50:14.585Z,97637.52
2024-03-10T06:52:46.574Z,97632.11
2024-03-10T06:55:16.219Z,97634.52
2024-03-10T06:57:44.186Z,97630.80
2024-03-10T07:00:14.294Z,97627.13
2024-03-10T07:02:47.129Z,97626.88
2024-03-10T07:05:16.731Z,97630.72
2024-03-10T07:07:44.957Z,97625.77
2024-03-10T07:10:14.844Z,97625.42
2024-03-10T07:12:43.154Z,97627.80
2024-03-10T07:15:11.442Z,97630.09
2024-03-10T07:17:41.410Z,97630.16
2024-03-10T07:20:11.359Z,97626.59
2024-03-10T07:22:39.640Z,97629.28
2024-03-10T07:25:09.516Z,97629.29
2024-03-10T07:27:37.709Z,97623.07
2024-03-10T07:30:06.289Z,97621.09
2024-03-10T07:32:34.467Z,97619.23
2024-03-10T07:35:03.814Z,97615.80
2024-03-10T07:37:31.967Z,97608.96
2024-03-10T07:39:59.863Z,97606.84
2024-03-10T07:42:27.819Z,97608.38
2024-03-10T07:44:56.895Z,97607.39
2024-03-10T07:47:24.851Z,97600.52
2024-03-10T07:49:52.957Z,97596.38
2024-03-10T07:52:20.886Z,97600.25
2024-03-10T07:54:48.780Z,97601.23
2024-03-10T07:57:16.792Z,97603.97
2024-03-10T07:59:44.659Z,97598.77
2024-03-10T08:02:16.563Z,97598.10
2024-03-10T08:04:46.492Z,97597.71
2024-03-10T08:07:14.374Z,97595.79
2024-03-10T08:09:42.554Z,97592.83
2024-03-10T08:12:12.428Z,97590.19
2024-03-10T08:14:41.060Z,97589.27
2024-03-10T08:17:09.318Z,97581.98
2024-03-10T08:19:37.980Z,97579.39
2024-03-10T08:22:07.273Z,97577.50
2024-03-10T08:24:35.278Z,97572.23
2024-03-10T08:27:03.420Z,97567.52
2024-03-10T08:29:31.548Z,97567.56
2024-03-10T08:31:59.574Z,97568.11
2024-03-10T08:34:29.113Z,97570.59
2024-03-10T08:36:57.086Z,97567.76
2024-03-10T08:39:26.186Z,97567.45
2024-03-10T08:41:54.084Z,97563.52
2024-03-10T08:44:23.765Z,97561.59
2024-03-10T08:46:51.910Z,97565.76
2024-03-10T08:49:19.947Z,97564.93
2024-03-10T08:51:48.082Z,97561.47
2024-03-10T08:54:16.694Z,97552.96
2024-03-10T08:56:45.108Z,97547.38
2024-03-10T08:59:17.360Z,97543.35
2024-03-10T09:01:45.338Z,97539.09
2024-03-10T09:04:13.273Z,97547.14
2024-03-10T09:06:42.103Z,97552.55
2024-03-10T09:09:10.112Z,97555.27
2024-03-10T09:11:38.225Z,97564.95
2024-03-10T09:14:09.159Z,97557.13
2024-03-10T09:16:37.153Z,97551.52
2024-03-10T09:19:09.084Z,97547.33
2024-03-10T09:21:38.048Z,97542.48
2024-03-10T09:24:06.233Z,97549.02
2024-03-10T09:26:34.373Z,97540.83
2024-03-10T09:29:02.488Z,97538.55
2024-03-10T09:31:31.960Z,97541.71
2024-03-10T09:34:01.056Z,97539.88
2024-03-10T09:36:29.854Z,97540.57
2024-03-10T09:38:59.017Z,97534.86
2024-03-10T09:41:32.739Z,97532.52
2024-03-10T09:44:02.143Z,97524.53
2024-03-10T09:46:31.674Z,97518.56
2024-03-10T09:49:03.145Z,97523.58
2024-03-10T09:51:35.193Z,97519.95
2024-03-10T09:54:03.972Z,97518.80
2024-03-10T09:56:32.169Z,97511.98
2024-03-10T09:59:07.110Z,97512.51
2024-03-10T10:01:37.180Z,97505.67
2024-03-10T10:04:09.061Z,97501.80
2024-03-10T10:06:40.624Z,97501.32
2024-03-10T10:09:12.032Z,97504.33
2024-03-10T10:11:40.523Z,97506.27
2024-03-10T10:14:17.069Z,97505.25
2024-03-10T10:17:00.392Z,97507.94
2024-03-10T10:19:30.988Z,97507.95
2024-03-10T10:21:59.808Z,97507.31
2024-03-10T10:24:28.343Z,97504.33
2024-03-10T10:27:06.038Z,97502.12
2024-03-10T10:29:50.628Z,97505.24
2024-03-10T10:32:23.755Z,97501.99
2024-03-10T10:34:53.647Z,97505.57
2024-03-10T10:37:22.411Z,97501.13
2024-03-10T10:39:50.521Z,97509.16
2024-03-10T10:42:29.744Z,97510.85
2024-03-10T10:45:03.033Z,97508.86
2024-03-10T10:47:35.337Z,97503.42
2024-03-10T10:50:15.844Z,97503.29
2024-03-10T10:52:44.892Z,97503.64
2024-03-10T10:55:13.573Z,97504.02
2024-03-10T10:57:45.885Z,97505.24
2024-03-10T11:00:30.467Z,97504.09
2024-03-10T11:03:18.884Z,97501.12
2024-03-10T11:06:03.375Z,97492.95
2024-03-10T11:08:38.512Z,97492.61
2024-03-10T11:11:07.153Z,97487.48
2024-03-10T11:13:39.499Z,97494.17
2024-03-10T11:16:13.051Z,97499.65
2024-03-10T11:18:43.243Z,97494.21
2024-03-10T11:21:21.692Z,97498.07
2024-03-10T11:23:52.811Z,97486.63
2024-03-10T11:26:25.539Z,97488.30
2024-03-10T11:28:58.054Z,97485.80
2024-03-10T11:31:28.692Z,97482.41
2024-03-10T11:33:58.105Z,97483.91
2024-03-10T11:36:33.906Z,97479.19
2024-03-10T11:39:25.490Z,97470.73
2024-03-10T11:41:53.524Z,97467.83
2024-03-10T11:44:24.317Z,97465.79
2024-03-10T11:46:53.219Z,97463.23
2024-03-10T11:49:21.281Z,97461.52
2024-03-10T11:51:50.891Z,97462.42
2024-03-10T11:54:20.332Z,97455.40
2024-03-10T11:56:52.654Z,97451.12
2024-03-10T11:59:21.151Z,97456.34
2024-03-10T12:01:49.352Z,97456.92
2024-03-10T12:04:18.438Z,97446.60
2024-03-10T12:06:47.810Z,97443.40
2024-03-10T12:09:22.002Z,97439.27
2024-03-10T12:11:51.520Z,97447.14
2024-03-10T12:14:20.783Z,97441.80
2024-03-10T12:16:51.996Z,97445.45
2024-03-10T12:19:21.823Z,97446.79
2024-03-10T12:21:50.498Z,97446.69
2024-03-10T12:24:19.491Z,97442.79
2024-03-10T12:26:47.614Z,97442.61
2024-03-10T12:29:21.481Z,97447.45
2024-03-10T12:31:51.423Z,97446.30
2024-03-10T12:34:20.624Z,97448.55
2024-03-10T12:36:49.706Z,97449.73
2024-03-10T12:39:17.987Z,97447.70
2024-03-10T12:41:46.507Z,97446.55
2024-03-10T12:44:15.057Z,97443.77
2024-03-10T12:46:43.718Z,97440.23
2024-03-10T12:49:11.867Z,97437.66
2024-03-10T12:51:40.885Z,97439.52
2024-03-10T12:54:09.152Z,97437.29
2024-03-10T12:56:37.417Z,97435.91
2024-03-10T12:59:05.845Z,97433.64
2024-03-10T13:01:35.352Z,97428.98
2024-03-10T13:04:03.486Z,97424.48
2024-03-10T13:06:31.869Z,97422.45
2024-03-10T13:09:00.488Z,97420.42
2024-03-10T13:11:32.053Z,97420.98
2024-03-10T13:14:00.911Z,97418.61
2024-03-10T13:16:28.949Z,97416.48
2024-03-10T13:18:59.715Z,97414.58
2024-03-10T13:21:28.388Z,97411.86
2024-03-10T13:23:56.386Z,97408.43
2024-03-10T13:26:24.338Z,97400.15
2024-03-10T13:28:52.663Z,97399.30
2024-03-10T13:31:20.973Z,97401.92
2024-03-10T13:33:50.587Z,97409.02
2024-03-10T13:36:18.857Z,97402.62
2024-03-10T13:38:49.056Z,97401.65
2024-03-10T13:41:17.444Z,97400.20
2024-03-10T13:43:46.146Z,97394.94
2024-03-10T13:46:15.795Z,97389.67
2024-03-10T13:48:43.850Z,97382.84
2024-03-10T13:51:12.100Z,97384.86
2024-03-10T13:53:40.166Z,97389.21
2024-03-10T13:56:08.258Z,97383.80
2024-03-10T13:58:38.050Z,97377.95
2024-03-10T14:01:07.064Z,97382.52
2024-03-10T14:03:36.887Z,97372.70
2024-03-10T14:06:04.975Z,97379.06
2024-03-10T14:08:33.436Z,97377.39
2024-03-10T14:11:01.492Z,97371.88
2024-03-10T14:13:30.280Z,97366.71
2024-03-10T14:15:58.857Z,97365.76
2024-03-10T14:18:30.286Z,97371.45
2024-03-10T14:20:58.488Z,97373.02
2024-03-10T14:23:26.504Z,97369.16
2024-03-10T14:25:54.925Z,97369.38
2024-03-10T14:28:23.116Z,97369.38
2024-03-10T14:30:51.177Z,97371.26
2024-03-10T14:33:19.484Z,97368.39
2024-03-10T14:35:48.101Z,97373.11
2024-03-10T14:38:16.210Z,97366.48
2024-03-10T14:40:44.267Z,97368.33
2024-03-10T14:43:13.602Z,97371.14
2024-03-10T14:45:41.736Z,97370.63
2024-03-10T14:48:10.038Z,97370.80
2024-03-10T14:50:39.103Z,97367.92
2024-03-10T14:53:07.427Z,97371.64
2024-03-10T14:55:36.035Z,97370.09
2024-03-10T14:58:05.913Z,97367.66
2024-03-10T15:00:35.844Z,97362.65
2024-03-10T15:03:09.509Z,97370.23
2024-03-10T15:05:41.263Z,97368.39
2024-03-10T15:08:12.887Z,97364.76
2024-03-10T15:10:43.004Z,97362.11
2024-03-10T15:13:11.328Z,97359.61
2024-03-10T15:15:40.355Z,97365.08
2024-03-10T15:18:14.450Z,97361.00
2024-03-10T15:20:48.395Z,97362.90
2024-03-10T15:23:18.709Z,97365.20
2024-03-10T15:25:48.749Z,97367.09
2024-03-10T15:28:17.442Z,97369.56
2024-03-10T15:30:45.646Z,97373.88
2024-03-10T15:33:15.424Z,97372.38
2024-03-10T15:35:43.564Z,97369.89
2024-03-10T15:38:15.327Z,97370.69
2024-03-10T15:40:44.413Z,97365.13
2024-03-10T15:43:14.462Z,97360.85
2024-03-10T15:45:43.961Z,97358.28
2024-03-10T15:48:12.867Z,97361.48
2024-03-10T15:50:41.293Z,97364.86
2024-03-10T15:53:11.757Z,97364.81
2024-03-10T15:55:40.468Z,97366.27
2024-03-10T15:58:09.201Z,97361.27
2024-03-10T16:00:38.253Z,97362.65
2024-03-10T16:03:16.353Z,97360.34
2024-03-10T16:05:48.879Z,97363.20
2024-03-10T16:08:20.490Z,97367.72
2024-03-10T16:10:50.458Z,97366.15
2024-03-10T16:13:27.079Z,97370.16
2024-03-10T16:15:55.704Z,97367.84
2024-03-10T16:18:29.204Z,97372.81
2024-03-10T16:21:00.250Z,97381.73
2024-03-10T16:23:29.359Z,97377.73
2024-03-10T16:25:57.700Z,97379.32
2024-03-10T16:28:26.524Z,97382.85
2024-03-10T16:30:54.528Z,97381.94
2024-03-10T16:33:22.499Z,97384.40
2024-03-10T16:35:50.612Z,97385.28
2024-03-10T16:38:19.320Z,97390.45
2024-03-10T16:40:47.897Z,97391.88
2024-03-10T16:43:18.055Z,97391.98
2024-03-10T16:45:49.491Z,97389.48
2024-03-10T16:48:18.365Z,97391.00
2024-03-10T16:50:47.363Z,97391.95
2024-03-10T16:53:16.562Z,97393.86
2024-03-10T16:55:48.437Z,97393.58
2024-03-10T16:58:20.733Z,97394.10
2024-03-10T17:00:50.211Z,97393.31
2024-03-10T17:03:18.458Z,97395.23
2024-03-10T17:05:46.511Z,97396.46
2024-03-10T17:08:17.120Z,97399.54
2024-03-10T17:10:48.513Z,97397.88
2024-03-10T17:13:19.118Z,97401.14
2024-03-10T17:15:48.152Z,97394.94
2024-03-10T17:18:17.148Z,97402.81
2024-03-10T17:20:45.462Z,97403.67
2024-03-10T17:23:14.330Z,97405.38
2024-03-10T17:25:42.689Z,97404.98
2024-03-10T17:28:10.779Z,97400.44
2024-03-10T17:30:38.894Z,97400.63
2024-03-10T17:33:07.211Z,97401.01
2024-03-10T17:35:35.667Z,97397.21
2024-03-10T17:38:05.715Z,97394.23
2024-03-10T17:40:33.879Z,97389.33
2024-03-10T17:43:01.917Z,97389.15
2024-03-10T17:45:29.916Z,97388.56
2024-03-10T17:47:58.144Z,97393.39
2024-03-10T17:50:26.449Z,97397.70
2024-03-10T17:52:54.540Z,97392.60
2024-03-10T17:55:22.713Z,97391.78
2024-03-10T17:57:51.266Z,97391.66
2024-03-10T18:00:23.872Z,97388.30
2024-03-10T18:02:52.235Z,97383.77
2024-03-10T18:05:23.790Z,97383.73
2024-03-10T18:07:53.317Z,97384.34
2024-03-10T18:10:22.764Z,97381.35
2024-03-10T18:12:52.725Z,97382.95
2024-03-10T18:15:22.006Z,97379.83
2024-03-10T18:17:50.380Z,97381.46
2024-03-10T18:20:21.262Z,97377.70
2024-03-10T18:22:49.801Z,97378.22
2024-03-10T18:25:18.101Z,97379.67
2024-03-10T18:27:46.135Z,97385.90
2024-03-10T18:30:15.692Z,97383.83
2024-03-10T18:32:44.358Z,97380.80
2024-03-10T18:35:13.576Z,97384.04
2024-03-10T18:37:42.153Z,97383.63
2024-03-10T18:40:13.816Z,97388.98
2024-03-10T18:42:42.147Z,97390.86
2024-03-10T18:45:10.774Z,97395.52
2024-03-10T18:47:38.959Z,97393.46
2024-03-10T18:50:11.734Z,97388.86
2024-03-10T18:52:43.940Z,97388.23
2024-03-10T18:55:14.428Z,97392.34
2024-03-10T18:57:42.704Z,97398.45
2024-03-10T19:00:13.640Z,97404.61
2024-03-10T19:02:42.939Z,97403.56
2024-03-10T19:05:13.194Z,97406.90
2024-03-10T19:07:42.368Z,97409.83
2024-03-10T19:10:11.630Z,97400.48
2024-03-10T19:12:41.572Z,97404.66
2024-03-10T19:15:10.088Z,97401.18
2024-03-10T19:17:40.295Z,97402.55
2024-03-10T19:20:15.260Z,97402.39
2024-03-10T19:22:51.892Z,97408.01
2024-03-10T19:25:20.102Z,97409.75
2024-03-10T19:27:49.265Z,97404.39
2024-03-10T19:30:19.308Z,97405.65
2024-03-10T19:32:48.545Z,97398.92
2024-03-10T19:35:18.076Z,97398.78
2024-03-10T19:37:47.095Z,97393.45
2024-03-10T19:40:23.989Z,97391.04
2024-03-10T19:42:54.644Z,97388.16
2024-03-10T19:45:23.573Z,97389.70
2024-03-10T19:47:51.772Z,97388.02
2024-03-10T19:50:21.359Z,97380.42
2024-03-10T19:52:51.061Z,97384.98
2024-03-10T19:55:19.552Z,97378.77
2024-03-10T19:57:47.969Z,97384.62
2024-03-10T20:00:16.880Z,97379.64
2024-03-10T20:02:47.057Z,97378.63
2024-03-10T20:05:16.236Z,97378.79
2024-03-10T20:07:50.277Z,97374.33
2024-03-10T20:10:21.687Z,97380.95
2024-03-10T20:12:51.509Z,97385.33
2024-03-10T20:15:19.872Z,97384.27
2024-03-10T20:17:50.579Z,97383.23
2024-03-10T20:20:27.035Z,97380.34
2024-03-10T20:22:56.360Z,97384.80
2024-03-10T20:25:26.140Z,97392.50
2024-03-10T20:27:58.907Z,97394.69
2024-03-10T20:30:31.315Z,97399.00
2024-03-10T20:33:00.050Z,97395.35
2024-03-10T20:35:28.340Z,97392.98
2024-03-10T20:37:56.918Z,97397.46
2024-03-10T20:40:25.099Z,97403.08
2024-03-10T20:42:53.092Z,97396.79
2024-03-10T20:45:21.111Z,97393.46
2024-03-10T20:47:50.247Z,97390.18
2024-03-10T20:50:24.728Z,97391.44
2024-03-10T20:52:54.272Z,97389.91
2024-03-10T20:55:22.823Z,97385.23
2024-03-10T20:57:51.237Z,97391.02
2024-03-10T21:00:20.932Z,97396.10
2024-03-10T21:02:50.332Z,97395.21
2024-03-10T21:05:18.836Z,97391.34
2024-03-10T21:07:46.912Z,97391.98
2024-03-10T21:10:16.770Z,97396.10
2024-03-10T21:12:47.267Z,97396.85
2024-03-10T21:15:18.877Z,97394.58
2024-03-10T21:17:47.014Z,97391.59
2024-03-10T21:20:15.618Z,97395.36
2024-03-10T21:22:43.629Z,97390.96
2024-03-10T21:25:11.493Z,97392.25
2024-03-10T21:27:40.829Z,97390.50
2024-03-10T21:30:08.954Z,97387.86
2024-03-10T21:32:37.213Z,97387.08
2024-03-10T21:35:08.566Z,97381.11
2024-03-10T21:37:38.853Z,97386.75
2024-03-10T21:40:11.825Z,97383.29
2024-03-10T21:42:40.945Z,97384.55
2024-03-10T21:45:09.878Z,97379.13
2024-03-10T21:47:41.780Z,97373.85
2024-03-10T21:50:15.951Z,97380.00
2024-03-10T21:52:45.801Z,97373.97
2024-03-10T21:55:14.287Z,97373.77
2024-03-10T21:57:42.708Z,97369.31
2024-03-10T22:00:18.257Z,97364.43
2024-03-10T22:02:49.497Z,97363.77
2024-03-10T22:05:18.962Z,97366.36
2024-03-10T22:07:47.346Z,97359.88
2024-03-10T22:10:17.281Z,97356.47
2024-03-10T22:12:46.694Z,97356.21
2024-03-10T22:15:16.308Z,97346.16
2024-03-10T22:17:53.739Z,97344.02
2024-03-10T22:20:27.739Z,97346.08
2024-03-10T22:22:56.957Z,97339.40
2024-03-10T22:25:27.045Z,97343.65
2024-03-10T22:27:55.897Z,97349.64
2024-03-10T22:30:31.213Z,97348.10
2024-03-10T22:32:59.972Z,97347.49
2024-03-10T22:35:28.393Z,97349.29
2024-03-10T22:37:59.708Z,97346.36
2024-03-10T22:40:32.685Z,97345.02
2024-03-10T22:43:00.877Z,97343.02
2024-03-10T22:45:31.846Z,97339.27
2024-03-10T22:48:05.952Z,97346.02
2024-03-10T22:50:36.421Z,97342.35
2024-03-10T22:53:07.571Z,97343.98
2024-03-10T22:55:36.106Z,97341.68
2024-03-10T22:58:05.783Z,97334.99
2024-03-10T23:00:38.680Z,97340.83
2024-03-10T23:03:08.666Z,97341.64
2024-03-10T23:05:37.732Z,97343.41
2024-03-10T23:08:06.813Z,97347.70
2024-03-10T23:10:43.479Z,97346.29
2024-03-10T23:13:11.774Z,97351.02
2024-03-10T23:15:40.951Z,97350.67
2024-03-10T23:18:09.429Z,97348.08
2024-03-10T23:20:37.616Z,97344.73
2024-03-10T23:23:05.905Z,97343.88
2024-03-10T23:25:33.967Z,97342.10
2024-03-10T23:28:03.112Z,97342.47
2024-03-10T23:30:31.073Z,97337.23
2024-03-10T23:32:59.163Z,97343.83
2024-03-10T23:35:27.461Z,97338.20
2024-03-10T23:37:55.424Z,97337.50
2024-03-10T23:40:26.503Z,97337.83
2024-03-10T23:42:56.903Z,97335.08
2024-03-10T23:45:24.865Z,97336.54
2024-03-10T23:47:53.083Z,97333.02
2024-03-10T23:50:24.920Z,97328.40
2024-03-10T23:52:54.657Z,97325.79
2024-03-10T23:55:36.087Z,97331.95
2024-03-10T23:58:04.217Z,97338.36
